This is the latest recevied weather packets stored in our database for station/object KE2LU. If no packets are shown the sender has not sent any weather packets the latest 10 day(s).
| Time | Temp. | Humidity | Pressure | Rain* | Wind** | Luminosity | Snow |
|---|---|---|---|---|---|---|---|
| 1777335603 | 13.89° C | 60% | 1020 hPa | 0 mm | - | - | - |
| 1777335302 | 13.89° C | 60% | 1020 hPa | 0 mm | - | - | - |
| 1777334403 | 14.44° C | 58% | 1019.9 hPa | 0 mm | - | - | - |
| 1777333503 | 15° C | 57% | 1019.9 hPa | 0 mm | - | - | - |
| 1777332903 | 15.56° C | 56% | 1020.1 hPa | 0 mm | - | - | - |
| 1777332303 | 16.11° C | 54% | 1020.1 hPa | 0 mm | - | - | - |
| 1777329303 | 18.89° C | 49% | 1020.1 hPa | 0 mm | - | - | - |
| 1777327503 | 19.44° C | 50% | 1020.4 hPa | 0 mm | - | - | - |
| 1777326003 | 19.44° C | 51% | 1020.4 hPa | 0 mm | - | - | - |
| 1777325403 | 19.44° C | 52% | 1020.5 hPa | 0 mm | - | - | - |
| 1777323903 | 20° C | 49% | 1020.6 hPa | 0 mm | - | - | - |
| 1777323003 | 21.11° C | 48% | 1020.7 hPa | 0 mm | - | - | - |
| 1777322703 | 21.67° C | 47% | 1020.8 hPa | 0 mm | - | - | - |
| 1777321803 | 22.22° C | 37% | 1020.9 hPa | 0 mm | - | - | - |
| 1777321203 | 22.22° C | 37% | 1021 hPa | 0 mm | - | - | - |
| 1777317003 | 21.67° C | 39% | 1022 hPa | 0 mm | - | - | - |
| 1777316403 | 21.11° C | 37% | 1022.2 hPa | 0 mm | - | - | - |
| 1777314904 | 20° C | 44% | 1022.5 hPa | 0 mm | - | - | - |
| 1777314304 | 18.89° C | 55% | 1022.6 hPa | 0 mm | - | - | - |
| 1777314003 | 18.89° C | 58% | 1022.7 hPa | 0 mm | - | - | - |
| 1777311603 | 17.78° C | 57% | 1023.2 hPa | 0 mm | - | - | - |
| 1777310703 | 17.78° C | 59% | 1023.4 hPa | 0 mm | - | - | - |
| 1777301704 | 16.11° C | 55% | 1025.3 hPa | 0 mm | - | - | - |
| 1777301404 | 16.11° C | 55% | 1025.3 hPa | 0 mm | - | - | - |
| 1777300504 | 16.11° C | 55% | 1025.4 hPa | 0 mm | - | - | - |
* Rain latest hour (hover to see other rain measurements)
** Current wind speed in m/s (hover to see current wind gust speed)